createdAt,value
2023-01-20T00:02:25.800Z,9.55
2023-01-20T00:04:52.104Z,11.88
2023-01-20T00:07:18.455Z,16.95
2023-01-20T00:09:44.737Z,15.73
2023-01-20T00:12:11.025Z,15.30
2023-01-20T00:14:37.336Z,14.05
2023-01-20T00:17:03.895Z,12.88
2023-01-20T00:19:30.188Z,11.20
2023-01-20T00:21:56.476Z,11.40
2023-01-20T00:24:22.759Z,9.80
2023-01-20T00:26:49.064Z,9.50
2023-01-20T00:29:15.374Z,10.50
2023-01-20T00:31:41.842Z,10.25
2023-01-20T00:34:09.551Z,10.25
2023-01-20T00:36:36.048Z,9.57
2023-01-20T00:39:03.116Z,10.40
2023-01-20T00:41:29.534Z,9.73
2023-01-20T00:43:55.794Z,9.75
2023-01-20T00:46:23.154Z,9.80
2023-01-20T00:48:49.508Z,9.25
2023-01-20T00:51:15.764Z,9.77
2023-01-20T00:53:42.031Z,8.95
2023-01-20T00:56:08.718Z,9.00
2023-01-20T00:58:35.047Z,8.27
2023-01-20T01:01:01.783Z,8.95
2023-01-20T01:03:28.591Z,8.25
2023-01-20T01:05:54.958Z,8.05
2023-01-20T01:08:21.292Z,8.35
2023-01-20T01:10:47.564Z,7.90
2023-01-20T01:13:13.859Z,7.32
2023-01-20T01:15:40.158Z,7.35
2023-01-20T01:18:06.509Z,7.72
2023-01-20T01:20:32.809Z,8.25
2023-01-20T01:22:59.158Z,8.40
2023-01-20T01:25:25.513Z,8.75
2023-01-20T01:27:51.828Z,9.57
2023-01-20T01:30:18.162Z,9.95
2023-01-20T01:32:44.542Z,10.13
2023-01-20T01:35:10.875Z,9.90
2023-01-20T01:37:37.309Z,10.25
2023-01-20T01:40:03.742Z,9.35
2023-01-20T01:42:30.081Z,8.98
2023-01-20T01:45:12.031Z,9.35
2023-01-20T01:47:40.919Z,8.77
2023-01-20T01:50:08.998Z,8.63
2023-01-20T01:52:35.573Z,9.25
2023-01-20T01:55:02.331Z,9.18
2023-01-20T01:57:30.076Z,9.85
2023-01-20T01:59:56.476Z,7.90
2023-01-20T02:02:24.175Z,7.32
2023-01-20T02:04:50.636Z,7.20
2023-01-20T02:07:18.777Z,7.40
2023-01-20T02:09:45.126Z,6.70
2023-01-20T02:12:13.532Z,6.70
2023-01-20T02:14:47.970Z,6.25
2023-01-20T02:17:21.092Z,7.20
2023-01-20T02:20:02.753Z,6.10
2023-01-20T02:22:36.403Z,5.95
2023-01-20T02:25:14.421Z,5.90
2023-01-20T02:27:59.645Z,5.65
2023-01-20T02:30:35.314Z,5.65
2023-01-20T02:33:05.417Z,6.00
2023-01-20T02:35:42.458Z,5.28
2023-01-20T02:38:11.959Z,5.38
2023-01-20T02:40:46.412Z,6.07
2023-01-20T02:43:21.966Z,5.93
2023-01-20T02:46:08.493Z,5.45
2023-01-20T02:48:36.593Z,5.57
2023-01-20T02:51:07.678Z,5.72
2023-01-20T02:53:38.164Z,5.75
2023-01-20T02:56:04.633Z,5.53
2023-01-20T02:58:38.408Z,5.72
2023-01-20T03:01:13.478Z,5.20
2023-01-20T03:03:42.138Z,5.28
2023-01-20T03:06:11.594Z,5.03
2023-01-20T03:08:39.396Z,4.40
2023-01-20T03:11:06.844Z,5.47
2023-01-20T03:13:36.443Z,4.60
2023-01-20T03:16:04.885Z,5.32
2023-01-20T03:18:32.538Z,5.43
2023-01-20T03:20:59.609Z,5.82
2023-01-20T03:23:27.377Z,5.35
2023-01-20T03:25:53.852Z,5.97
2023-01-20T03:28:20.193Z,5.55
2023-01-20T03:30:46.565Z,6.07
2023-01-20T03:33:14.021Z,5.88
2023-01-20T03:35:40.864Z,6.20
2023-01-20T03:38:07.355Z,6.18
2023-01-20T03:40:37.335Z,6.18
2023-01-20T03:43:10.804Z,6.47
2023-01-20T03:48:09.871Z,6.28
2023-01-20T03:50:54.888Z,6.30
2023-01-20T03:53:33.654Z,5.93
2023-01-20T03:56:05.838Z,6.13
2023-01-20T03:58:33.641Z,5.40
2023-01-20T04:01:00.877Z,5.57
2023-01-20T04:03:31.315Z,5.47
2023-01-20T04:05:59.583Z,5.22
2023-01-20T04:08:28.001Z,5.88
2023-01-20T04:10:55.449Z,6.15
2023-01-20T04:13:21.830Z,5.70
2023-01-20T04:15:48.279Z,6.40
2023-01-20T04:18:16.162Z,6.07
2023-01-20T04:20:43.654Z,5.43
2023-01-20T04:23:17.263Z,5.82
2023-01-20T04:25:43.854Z,6.15
2023-01-20T04:28:10.096Z,5.53
2023-01-20T04:30:36.466Z,6.05
2023-01-20T04:33:02.885Z,6.20
2023-01-20T04:35:29.201Z,6.07
2023-01-20T04:37:55.461Z,5.63
2023-01-20T04:40:21.810Z,5.85
2023-01-20T04:42:48.063Z,6.05
2023-01-20T04:45:15.814Z,5.78
2023-01-20T04:47:42.511Z,6.38
2023-01-20T04:50:09.186Z,7.03
2023-01-20T04:52:35.496Z,7.95
2023-01-20T04:55:02.145Z,7.50
2023-01-20T04:57:28.540Z,6.80
2023-01-20T04:59:54.810Z,7.38
2023-01-20T05:02:21.203Z,7.45
2023-01-20T05:04:47.731Z,6.55
2023-01-20T05:07:14.045Z,7.03
2023-01-20T05:09:40.286Z,6.47
2023-01-20T05:12:06.669Z,6.72
2023-01-20T05:14:32.971Z,6.90
2023-01-20T05:16:59.332Z,6.80
2023-01-20T05:19:25.661Z,6.22
2023-01-20T05:21:51.969Z,6.97
2023-01-20T05:24:18.305Z,8.13
2023-01-20T05:26:44.597Z,9.05
2023-01-20T05:29:10.956Z,9.38
2023-01-20T05:31:43.213Z,8.80
2023-01-20T05:34:10.200Z,7.82
2023-01-20T05:36:36.571Z,7.85
2023-01-20T05:39:02.986Z,6.38
2023-01-20T05:41:29.311Z,6.95
2023-01-20T05:43:55.685Z,6.85
2023-01-20T05:46:22.106Z,7.25
2023-01-20T05:48:48.578Z,7.28
2023-01-20T05:51:14.985Z,7.60
2023-01-20T05:53:41.286Z,7.60
2023-01-20T05:56:07.764Z,7.78
2023-01-20T05:58:34.110Z,7.80
2023-01-20T06:01:07.388Z,7.50
2023-01-20T06:03:33.888Z,7.20
2023-01-20T06:06:00.996Z,7.88
2023-01-20T06:08:27.298Z,7.00
2023-01-20T06:10:53.692Z,7.25
2023-01-20T06:13:20.040Z,7.70
2023-01-20T06:15:50.762Z,7.95
2023-01-20T06:18:17.028Z,8.60
2023-01-20T06:20:43.349Z,9.07
2023-01-20T06:23:09.716Z,9.30
2023-01-20T06:25:36.021Z,9.35
2023-01-20T06:28:02.607Z,9.20
2023-01-20T06:30:28.860Z,10.05
2023-01-20T06:32:55.196Z,14.07
2023-01-20T06:35:21.562Z,15.35
2023-01-20T06:37:47.841Z,13.23
2023-01-20T06:40:14.991Z,11.65
2023-01-20T06:42:41.422Z,11.10
2023-01-20T06:45:08.180Z,10.00
2023-01-20T06:47:34.503Z,8.10
2023-01-20T06:50:00.856Z,9.70
2023-01-20T06:52:27.228Z,8.75
2023-01-20T06:54:53.522Z,9.70
2023-01-20T06:57:19.807Z,8.70
2023-01-20T06:59:46.169Z,9.43
2023-01-20T07:02:12.649Z,9.45
2023-01-20T07:04:39.113Z,9.07
2023-01-20T07:07:05.616Z,9.77
2023-01-20T07:09:31.988Z,10.48
2023-01-20T07:11:58.394Z,9.80
2023-01-20T07:14:24.728Z,9.77
2023-01-20T07:16:51.054Z,10.75
2023-01-20T07:19:17.455Z,11.15
2023-01-20T07:21:43.899Z,11.73
2023-01-20T07:24:10.295Z,11.13
2023-01-20T07:26:36.623Z,13.07
2023-01-20T07:29:02.969Z,12.85
2023-01-20T07:31:31.210Z,12.70
2023-01-20T07:33:57.820Z,13.32
2023-01-20T07:36:24.490Z,12.52
2023-01-20T07:38:51.294Z,12.82
2023-01-20T07:41:19.394Z,12.18
2023-01-20T07:43:46.431Z,12.20
2023-01-20T07:46:13.423Z,13.18
2023-01-20T07:48:39.833Z,12.45
2023-01-20T07:51:07.408Z,14.05
2023-01-20T07:53:41.052Z,13.45
2023-01-20T07:58:33.969Z,14.73
2023-01-20T08:01:07.928Z,14.65
2023-01-20T08:03:34.329Z,14.77
2023-01-20T08:06:04.343Z,15.23
2023-01-20T08:08:32.029Z,15.90
2023-01-20T08:10:58.912Z,15.45
2023-01-20T08:13:25.333Z,15.00
2023-01-20T08:15:51.678Z,14.68
2023-01-20T08:18:17.966Z,14.20
2023-01-20T08:20:44.305Z,13.45
2023-01-20T08:23:10.607Z,13.98
2023-01-20T08:25:36.884Z,13.25
2023-01-20T08:28:05.432Z,12.68
2023-01-20T08:30:31.900Z,12.57
2023-01-20T08:32:58.189Z,13.38
2023-01-20T08:35:24.473Z,12.57
2023-01-20T08:37:50.815Z,13.00
2023-01-20T08:40:17.251Z,12.60
2023-01-20T08:42:43.621Z,14.07
2023-01-20T08:45:09.993Z,17.48
2023-01-20T08:47:37.226Z,16.05
2023-01-20T08:50:04.509Z,15.98
2023-01-20T08:52:30.852Z,14.27
2023-01-20T08:54:58.641Z,13.15
2023-01-20T08:57:25.920Z,13.70
2023-01-20T08:59:52.724Z,12.65
2023-01-20T09:02:19.177Z,13.18
2023-01-20T09:04:45.562Z,12.77
2023-01-20T09:07:12.600Z,13.02
2023-01-20T09:09:39.088Z,13.02
2023-01-20T09:12:05.847Z,12.27
2023-01-20T09:14:32.130Z,12.77
2023-01-20T09:16:58.649Z,11.77
2023-01-20T09:19:25.033Z,10.60
2023-01-20T09:21:51.590Z,10.93
2023-01-20T09:24:17.961Z,9.57
2023-01-20T09:26:45.213Z,9.18
2023-01-20T09:29:12.877Z,11.27
2023-01-20T09:31:46.195Z,11.38
2023-01-20T09:34:18.916Z,11.43
2023-01-20T09:36:45.840Z,12.20
2023-01-20T09:39:32.110Z,12.30
2023-01-20T09:42:19.863Z,11.80
2023-01-20T09:45:10.517Z,11.88
2023-01-20T09:47:43.843Z,12.75
2023-01-20T09:50:36.144Z,12.60
2023-01-20T09:53:05.311Z,13.10
2023-01-20T09:55:40.908Z,14.73
2023-01-20T09:58:11.520Z,17.52
2023-01-20T10:00:39.476Z,19.00
2023-01-20T10:03:12.977Z,21.73
2023-01-20T10:05:40.091Z,21.52
2023-01-20T10:08:32.916Z,22.83
2023-01-20T10:11:05.438Z,23.52
2023-01-20T10:13:37.792Z,25.15
2023-01-20T10:16:06.414Z,22.83
2023-01-20T10:18:48.091Z,23.05
2023-01-20T10:21:19.797Z,27.45
2023-01-20T10:23:57.013Z,22.67
2023-01-20T10:26:30.070Z,25.27
2023-01-20T10:29:00.358Z,17.55
2023-01-20T10:31:28.518Z,22.25
2023-01-20T10:33:57.073Z,23.08
2023-01-20T10:36:28.825Z,21.42
2023-01-20T10:38:58.279Z,29.33
2023-01-20T10:41:30.822Z,21.75
2023-01-20T10:43:58.178Z,26.10
2023-01-20T10:46:30.613Z,28.48
2023-01-20T10:49:15.728Z,24.80
2023-01-20T10:51:42.070Z,35.85
2023-01-20T10:54:17.750Z,28.77
2023-01-20T10:56:51.624Z,27.75
2023-01-20T10:59:19.957Z,28.73
2023-01-20T11:01:51.901Z,26.30
2023-01-20T11:04:22.671Z,25.65
2023-01-20T11:06:52.524Z,29.30
2023-01-20T11:09:37.474Z,29.23
2023-01-20T11:12:06.425Z,26.17
2023-01-20T11:14:33.370Z,25.98
2023-01-20T11:17:02.395Z,26.05
2023-01-20T11:19:43.808Z,26.80
2023-01-20T11:22:11.401Z,26.25
2023-01-20T11:24:44.973Z,24.83
2023-01-20T11:27:20.223Z,23.63
2023-01-20T11:30:06.920Z,24.02
2023-01-20T11:32:34.175Z,28.17
2023-01-20T11:35:01.534Z,25.52
2023-01-20T11:37:38.735Z,25.77
2023-01-20T11:40:19.131Z,26.20
2023-01-20T11:42:46.644Z,26.15
2023-01-20T11:45:24.929Z,25.48
2023-01-20T11:48:00.671Z,26.40
2023-01-20T11:50:29.811Z,26.48
2023-01-20T11:53:11.543Z,27.73
2023-01-20T11:55:44.904Z,27.65
2023-01-20T11:58:15.347Z,28.08
2023-01-20T12:00:42.952Z,26.77
2023-01-20T12:03:26.097Z,29.00
2023-01-20T12:05:57.081Z,28.87
2023-01-20T12:08:34.042Z,29.50
2023-01-20T12:11:02.618Z,28.95
2023-01-20T12:13:31.066Z,28.38
2023-01-20T12:16:01.231Z,28.20
2023-01-20T12:19:01.137Z,28.48
2023-01-20T12:21:34.523Z,27.50
2023-01-20T12:24:03.100Z,26.65
2023-01-20T12:26:34.567Z,28.05
2023-01-20T12:29:05.153Z,26.92
2023-01-20T12:31:31.813Z,26.35
2023-01-20T12:34:05.633Z,25.65
2023-01-20T12:36:31.964Z,28.83
2023-01-20T12:39:10.429Z,26.27
2023-01-20T12:41:46.949Z,25.70
2023-01-20T12:44:17.430Z,26.23
2023-01-20T12:46:53.094Z,25.35
2023-01-20T12:49:19.385Z,26.33
2023-01-20T12:52:04.316Z,26.33
2023-01-20T12:54:48.406Z,25.10
2023-01-20T12:57:15.366Z,24.90
2023-01-20T13:00:01.734Z,24.95
2023-01-20T13:02:40.849Z,26.23
2023-01-20T13:05:10.265Z,24.83
2023-01-20T13:07:46.028Z,24.52
2023-01-20T13:10:12.367Z,25.35
2023-01-20T13:12:43.381Z,25.40
2023-01-20T13:15:16.979Z,24.33
2023-01-20T13:17:52.173Z,23.90
2023-01-20T13:20:22.858Z,23.33
2023-01-20T13:22:50.118Z,24.52
2023-01-20T13:25:18.047Z,24.00
2023-01-20T13:27:45.275Z,23.25
2023-01-20T13:30:30.560Z,21.38
2023-01-20T13:33:12.886Z,20.88
2023-01-20T13:35:43.599Z,21.67
2023-01-20T13:38:27.844Z,21.85
2023-01-20T13:40:55.144Z,21.00
2023-01-20T13:43:27.444Z,21.48
2023-01-20T13:46:02.783Z,23.35
2023-01-20T13:48:33.230Z,21.88
2023-01-20T13:51:29.540Z,22.70
2023-01-20T13:54:15.812Z,23.00
2023-01-20T13:56:42.064Z,23.05
2023-01-20T13:59:08.774Z,24.42
2023-01-20T14:01:37.146Z,24.10
2023-01-20T14:04:24.061Z,23.13
2023-01-20T14:06:51.465Z,23.45
2023-01-20T14:09:22.625Z,21.88
2023-01-20T14:11:49.874Z,21.67
2023-01-20T14:14:18.703Z,21.55
2023-01-20T14:16:45.277Z,22.08
2023-01-20T14:19:14.356Z,20.65
2023-01-20T14:21:41.317Z,24.48
2023-01-20T14:24:25.832Z,24.35
2023-01-20T14:27:05.052Z,22.45
2023-01-20T14:29:31.350Z,20.88
2023-01-20T14:31:57.993Z,22.25
2023-01-20T14:34:32.533Z,21.27
2023-01-20T14:37:01.077Z,21.88
2023-01-20T14:39:28.250Z,21.30
2023-01-20T14:41:55.755Z,22.02
2023-01-20T14:44:26.405Z,22.83
2023-01-20T14:46:54.119Z,22.25
2023-01-20T14:49:21.972Z,35.00
2023-01-20T14:51:49.669Z,26.33
2023-01-20T14:54:30.098Z,20.95
2023-01-20T14:56:57.340Z,22.38
2023-01-20T14:59:23.908Z,20.95
2023-01-20T15:01:54.347Z,22.05
2023-01-20T15:04:21.212Z,22.15
2023-01-20T15:06:51.524Z,22.25
2023-01-20T15:09:25.781Z,22.67
2023-01-20T15:11:52.047Z,22.02
2023-01-20T15:14:18.392Z,22.88
2023-01-20T15:16:47.365Z,22.80
2023-01-20T15:19:16.844Z,23.42
2023-01-20T15:21:45.753Z,22.08
2023-01-20T15:24:19.631Z,22.00
2023-01-20T15:26:46.699Z,23.90
2023-01-20T15:29:26.642Z,22.25
2023-01-20T15:31:53.965Z,22.15
2023-01-20T15:34:21.000Z,24.17
2023-01-20T15:36:48.088Z,26.80
2023-01-20T15:39:18.372Z,25.67
2023-01-20T15:41:45.570Z,22.80
2023-01-20T15:44:11.903Z,26.55
2023-01-20T15:46:39.488Z,22.40
2023-01-20T15:49:15.084Z,22.27
2023-01-20T15:51:42.527Z,20.92
2023-01-20T15:54:09.477Z,21.13
2023-01-20T15:56:38.660Z,22.40
2023-01-20T15:59:15.377Z,22.23
2023-01-20T16:01:42.076Z,21.95
2023-01-20T16:04:09.238Z,22.10
2023-01-20T16:06:37.001Z,21.75
2023-01-20T16:09:12.893Z,22.40
2023-01-20T16:11:42.039Z,22.08
2023-01-20T16:14:08.280Z,21.88
2023-01-20T16:16:34.653Z,22.08
2023-01-20T16:19:01.102Z,21.63
2023-01-20T16:21:27.536Z,22.27
2023-01-20T16:23:53.873Z,22.58
2023-01-20T16:26:24.588Z,22.77
2023-01-20T16:28:51.559Z,24.45
2023-01-20T16:31:18.402Z,24.40
2023-01-20T16:33:44.760Z,24.42
2023-01-20T16:36:18.285Z,23.17
2023-01-20T16:38:45.293Z,23.50
2023-01-20T16:41:20.761Z,24.63
2023-01-20T16:43:47.381Z,24.02
2023-01-20T16:46:18.070Z,23.13
2023-01-20T16:48:44.884Z,23.13
2023-01-20T16:51:15.106Z,23.77
2023-01-20T16:53:41.685Z,24.27
2023-01-20T16:56:18.487Z,24.38
2023-01-20T16:58:46.707Z,25.35
2023-01-20T17:01:13.256Z,23.75
2023-01-20T17:03:40.187Z,24.67
2023-01-20T17:06:10.940Z,29.80
2023-01-20T17:08:37.383Z,30.48
2023-01-20T17:11:03.770Z,26.15
2023-01-20T17:13:30.087Z,21.75
2023-01-20T17:15:56.365Z,19.55
2023-01-20T17:18:23.370Z,20.20
2023-01-20T17:20:49.713Z,16.98
2023-01-20T17:23:15.970Z,18.33
2023-01-20T17:25:42.236Z,18.27
2023-01-20T17:28:08.570Z,20.60
2023-01-20T17:30:34.916Z,20.27
2023-01-20T17:33:01.189Z,19.83
2023-01-20T17:35:27.924Z,21.92
2023-01-20T17:37:54.311Z,23.10
2023-01-20T17:40:20.893Z,27.17
2023-01-20T17:42:47.320Z,24.58
2023-01-20T17:45:13.789Z,25.48
2023-01-20T17:47:40.189Z,25.88
2023-01-20T17:50:06.574Z,25.35
2023-01-20T17:52:32.885Z,22.13
2023-01-20T17:54:59.377Z,20.58
2023-01-20T17:57:27.131Z,20.15
2023-01-20T17:59:53.564Z,21.20
2023-01-20T18:02:21.995Z,24.10
2023-01-20T18:04:48.339Z,25.10
2023-01-20T18:07:14.665Z,20.98
2023-01-20T18:09:42.924Z,21.15
2023-01-20T18:12:09.528Z,19.85
2023-01-20T18:14:35.838Z,21.45
2023-01-20T18:17:02.199Z,23.05
2023-01-20T18:19:28.501Z,21.55
2023-01-20T18:21:54.873Z,22.27
2023-01-20T18:24:21.244Z,21.75
2023-01-20T18:26:47.589Z,23.83
2023-01-20T18:29:15.344Z,23.58
2023-01-20T18:31:42.186Z,24.23
2023-01-20T18:34:10.601Z,23.70
2023-01-20T18:36:38.545Z,23.88
2023-01-20T18:39:06.287Z,19.48
2023-01-20T18:41:36.400Z,21.33
2023-01-20T18:44:03.757Z,21.33
2023-01-20T18:46:30.181Z,22.40
2023-01-20T18:48:56.556Z,21.73
2023-01-20T18:51:24.353Z,20.77
2023-01-20T18:53:58.202Z,21.20
2023-01-20T18:56:25.058Z,20.83
2023-01-20T18:58:51.427Z,22.73
2023-01-20T19:01:19.464Z,23.27
2023-01-20T19:03:46.582Z,21.63
2023-01-20T19:06:14.814Z,22.85
2023-01-20T19:08:41.881Z,19.45
2023-01-20T19:11:10.298Z,21.42
2023-01-20T19:13:36.653Z,21.98
2023-01-20T19:16:03.033Z,23.33
2023-01-20T19:18:29.640Z,24.73
2023-01-20T19:20:56.027Z,27.35
2023-01-20T19:23:22.383Z,27.65
2023-01-20T19:25:58.692Z,28.27
2023-01-20T19:28:24.942Z,28.73
2023-01-20T19:30:51.320Z,28.33
2023-01-20T19:33:17.750Z,27.48
2023-01-20T19:35:44.036Z,22.58
2023-01-20T19:38:10.364Z,17.20
2023-01-20T19:40:36.775Z,14.35
2023-01-20T19:43:03.485Z,14.82
2023-01-20T19:45:44.777Z,14.27
2023-01-20T19:48:12.044Z,12.18
2023-01-20T19:50:38.389Z,11.93
2023-01-20T19:53:04.637Z,13.10
2023-01-20T19:55:30.925Z,14.57
2023-01-20T19:57:57.289Z,15.55
2023-01-20T20:00:23.783Z,14.38
2023-01-20T20:02:53.515Z,14.73
2023-01-20T20:05:19.805Z,17.30
2023-01-20T20:07:46.173Z,18.40
2023-01-20T20:10:12.548Z,17.38
2023-01-20T20:12:38.978Z,16.42
2023-01-20T20:15:05.559Z,15.35
2023-01-20T20:17:31.890Z,15.40
2023-01-20T20:19:58.172Z,14.85
2023-01-20T20:22:24.790Z,16.27
2023-01-20T20:24:51.095Z,16.58
2023-01-20T20:27:17.381Z,18.00
2023-01-20T20:29:43.754Z,17.58
2023-01-20T20:32:10.138Z,17.65
2023-01-20T20:34:36.494Z,17.83
2023-01-20T20:37:03.435Z,18.10
2023-01-20T20:39:29.837Z,15.80
2023-01-20T20:41:56.599Z,17.30
2023-01-20T20:44:23.313Z,17.73
2023-01-20T20:46:49.870Z,17.77
2023-01-20T20:49:16.242Z,15.73
2023-01-20T20:51:42.819Z,16.00
2023-01-20T20:54:09.484Z,14.82
2023-01-20T20:56:36.503Z,14.45
2023-01-20T20:59:03.812Z,14.18
2023-01-20T21:01:32.700Z,14.13
2023-01-20T21:04:00.230Z,13.05
2023-01-20T21:06:26.622Z,12.63
2023-01-20T21:08:53.068Z,12.50
2023-01-20T21:11:20.305Z,13.38
2023-01-20T21:13:49.043Z,13.13
2023-01-20T21:16:17.310Z,13.35
2023-01-20T21:18:43.710Z,14.60
2023-01-20T21:21:13.668Z,12.98
2023-01-20T21:23:42.885Z,13.20
2023-01-20T21:26:12.973Z,14.40
2023-01-20T21:28:40.592Z,14.93
2023-01-20T21:31:07.773Z,15.82
2023-01-20T21:33:35.258Z,16.20
2023-01-20T21:36:03.773Z,15.57
2023-01-20T21:38:31.393Z,17.15
2023-01-20T21:41:00.475Z,15.85
2023-01-20T21:43:49.125Z,16.42
2023-01-20T21:46:15.751Z,18.10
2023-01-20T21:49:00.805Z,17.85
2023-01-20T21:51:45.800Z,17.60
2023-01-20T21:54:12.071Z,17.38
2023-01-20T21:56:38.442Z,18.08
2023-01-20T21:59:04.890Z,17.67
2023-01-20T22:01:31.336Z,16.08
2023-01-20T22:03:57.655Z,17.58
2023-01-20T22:06:23.965Z,17.75
2023-01-20T22:08:50.270Z,17.90
2023-01-20T22:11:16.551Z,19.13
2023-01-20T22:13:42.846Z,20.67
2023-01-20T22:16:09.282Z,23.38
2023-01-20T22:18:35.616Z,23.52
2023-01-20T22:21:02.786Z,24.95
2023-01-20T22:23:31.464Z,26.33
2023-01-20T22:25:57.870Z,28.70
2023-01-20T22:28:24.625Z,30.02
2023-01-20T22:30:51.364Z,29.60
2023-01-20T22:33:17.727Z,28.45
2023-01-20T22:35:44.017Z,28.58
2023-01-20T22:38:10.323Z,30.08
2023-01-20T22:40:36.617Z,29.27
2023-01-20T22:43:03.032Z,29.23
2023-01-20T22:45:29.421Z,30.55
2023-01-20T22:47:56.046Z,29.95
2023-01-20T22:50:22.515Z,30.15
2023-01-20T22:52:49.155Z,30.70
2023-01-20T22:55:15.439Z,30.45
2023-01-20T22:57:41.714Z,29.00
2023-01-20T23:00:08.583Z,29.77
2023-01-20T23:02:34.895Z,28.33
2023-01-20T23:05:01.157Z,28.80
2023-01-20T23:07:27.396Z,28.27
2023-01-20T23:09:53.669Z,29.13
2023-01-20T23:12:19.976Z,30.55
2023-01-20T23:14:58.516Z,30.63
2023-01-20T23:17:29.085Z,31.90
2023-01-20T23:19:56.538Z,30.30
2023-01-20T23:22:23.281Z,30.75
2023-01-20T23:24:50.011Z,31.08
2023-01-20T23:27:16.699Z,30.83
2023-01-20T23:29:43.040Z,29.00
2023-01-20T23:32:09.344Z,29.20
2023-01-20T23:34:35.595Z,30.20
2023-01-20T23:37:01.919Z,29.60
2023-01-20T23:39:28.181Z,29.88
2023-01-20T23:41:54.895Z,28.90
2023-01-20T23:44:21.244Z,29.15
2023-01-20T23:46:47.585Z,29.05
2023-01-20T23:49:13.874Z,27.95
2023-01-20T23:51:40.202Z,27.30
2023-01-20T23:54:07.381Z,27.98
2023-01-20T23:56:33.700Z,27.83
2023-01-20T23:59:00.019Z,26.27
